Terminal Aerodrome Forecast
Issued by NWS

Home | Current Version | Previous Version | Text Only | Print | Product List | Glossary On
Versions: 1 2 3 4 5 6 7 8 9 10 11 12 13 14 15 16 17 18 19 20 21 22 23 24 25 26 27 28 29 30 31
000
FTUS45 KBOI 282324
TAFBKE
TAF
KBKE 282324Z 2900/2924 VRB05KT P6SM VCSH FEW005 BKN035
     FM290600 VRB03KT 5SM BR BKN025
      TEMPO 2908/2912 1SM -SN BR OVC010
     FM291200 30007KT 5SM BR VCSH OVC020
      TEMPO 2912/2916 1SM -SN BR OVC010
     FM291600 32012G20KT 5SM -SN BR OVC015
      AMD NOT SKED=

USA.gov is the U.S. government's official web portal to all federal, state and local government web resources and services.